sensor_id;sensor_type;location;lat;lon;timestamp;temperature;humidity
50013;DHT22;35901;48.694;9.476;2023-07-20T00:00:07;19.00;90.00
50013;DHT22;35901;48.694;9.476;2023-07-20T00:02:38;19.00;90.10
50013;DHT22;35901;48.694;9.476;2023-07-20T00:05:04;18.90;90.10
50013;DHT22;35901;48.694;9.476;2023-07-20T00:07:30;18.90;90.10
50013;DHT22;35901;48.694;9.476;2023-07-20T00:09:55;18.90;90.60
50013;DHT22;35901;48.694;9.476;2023-07-20T00:12:21;18.90;90.20
50013;DHT22;35901;48.694;9.476;2023-07-20T00:14:48;18.90;90.30
50013;DHT22;35901;48.694;9.476;2023-07-20T00:17:13;18.80;90.30
50013;DHT22;35901;48.694;9.476;2023-07-20T00:19:39;18.80;90.30
50013;DHT22;35901;48.694;9.476;2023-07-20T00:22:05;18.80;90.30
50013;DHT22;35901;48.694;9.476;2023-07-20T00:24:31;18.80;90.20
50013;DHT22;35901;48.694;9.476;2023-07-20T00:26:57;18.80;90.10
50013;DHT22;35901;48.694;9.476;2023-07-20T00:29:23;18.70;90.00
50013;DHT22;35901;48.694;9.476;2023-07-20T00:31:49;18.70;89.40
50013;DHT22;35901;48.694;9.476;2023-07-20T00:34:14;18.60;88.90
50013;DHT22;35901;48.694;9.476;2023-07-20T00:36:40;18.60;88.40
50013;DHT22;35901;48.694;9.476;2023-07-20T00:39:06;18.50;87.70
50013;DHT22;35901;48.694;9.476;2023-07-20T00:41:33;18.40;87.00
50013;DHT22;35901;48.694;9.476;2023-07-20T00:43:59;18.40;86.70
50013;DHT22;35901;48.694;9.476;2023-07-20T00:46:25;18.30;86.30
50013;DHT22;35901;48.694;9.476;2023-07-20T00:48:51;18.30;86.10
50013;DHT22;35901;48.694;9.476;2023-07-20T00:51:18;18.20;85.90
50013;DHT22;35901;48.694;9.476;2023-07-20T00:53:45;18.20;85.80
50013;DHT22;35901;48.694;9.476;2023-07-20T00:56:11;18.10;85.20
50013;DHT22;35901;48.694;9.476;2023-07-20T00:58:37;18.10;84.20
50013;DHT22;35901;48.694;9.476;2023-07-20T01:01:03;18.10;83.50
50013;DHT22;35901;48.694;9.476;2023-07-20T01:03:29;18.10;82.40
50013;DHT22;35901;48.694;9.476;2023-07-20T01:06:05;18.20;82.00
50013;DHT22;35901;48.694;9.476;2023-07-20T01:08:44;18.20;81.70
50013;DHT22;35901;48.694;9.476;2023-07-20T01:11:37;18.10;81.60
50013;DHT22;35901;48.694;9.476;2023-07-20T01:14:03;18.10;81.70
50013;DHT22;35901;48.694;9.476;2023-07-20T01:16:30;18.00;82.00
50013;DHT22;35901;48.694;9.476;2023-07-20T01:18:55;18.00;82.30
50013;DHT22;35901;48.694;9.476;2023-07-20T01:21:26;17.90;82.50
50013;DHT22;35901;48.694;9.476;2023-07-20T01:26:44;17.80;83.30
50013;DHT22;35901;48.694;9.476;2023-07-20T01:29:22;17.70;83.70
50013;DHT22;35901;48.694;9.476;2023-07-20T01:31:53;17.60;83.90
50013;DHT22;35901;48.694;9.476;2023-07-20T01:34:20;17.50;84.40
50013;DHT22;35901;48.694;9.476;2023-07-20T01:36:50;17.40;84.70
50013;DHT22;35901;48.694;9.476;2023-07-20T01:39:19;17.30;85.20
50013;DHT22;35901;48.694;9.476;2023-07-20T01:41:46;17.20;85.40
50013;DHT22;35901;48.694;9.476;2023-07-20T01:44:13;17.20;85.80
50013;DHT22;35901;48.694;9.476;2023-07-20T01:46:38;17.20;86.20
50013;DHT22;35901;48.694;9.476;2023-07-20T01:49:04;17.20;86.20
50013;DHT22;35901;48.694;9.476;2023-07-20T01:51:31;17.10;86.70
50013;DHT22;35901;48.694;9.476;2023-07-20T01:53:56;17.10;86.70
50013;DHT22;35901;48.694;9.476;2023-07-20T01:56:22;17.10;87.20
50013;DHT22;35901;48.694;9.476;2023-07-20T01:58:48;17.00;87.50
50013;DHT22;35901;48.694;9.476;2023-07-20T02:01:13;17.00;88.20
50013;DHT22;35901;48.694;9.476;2023-07-20T02:03:39;16.90;88.60
50013;DHT22;35901;48.694;9.476;2023-07-20T02:06:05;16.80;89.30
50013;DHT22;35901;48.694;9.476;2023-07-20T02:08:30;16.80;89.50
50013;DHT22;35901;48.694;9.476;2023-07-20T02:10:56;16.70;90.00
50013;DHT22;35901;48.694;9.476;2023-07-20T02:13:22;16.70;90.10
50013;DHT22;35901;48.694;9.476;2023-07-20T02:15:47;16.60;90.20
50013;DHT22;35901;48.694;9.476;2023-07-20T02:18:15;16.60;90.30
50013;DHT22;35901;48.694;9.476;2023-07-20T02:20:41;16.50;90.30
50013;DHT22;35901;48.694;9.476;2023-07-20T02:23:07;16.40;90.50
50013;DHT22;35901;48.694;9.476;2023-07-20T02:25:33;16.30;90.50
50013;DHT22;35901;48.694;9.476;2023-07-20T02:27:58;16.10;90.70
50013;DHT22;35901;48.694;9.476;2023-07-20T02:30:25;16.00;90.90
50013;DHT22;35901;48.694;9.476;2023-07-20T02:32:52;15.80;91.20
50013;DHT22;35901;48.694;9.476;2023-07-20T02:35:18;15.60;91.90
50013;DHT22;35901;48.694;9.476;2023-07-20T02:37:44;15.50;91.90
50013;DHT22;35901;48.694;9.476;2023-07-20T02:40:10;15.40;92.00
50013;DHT22;35901;48.694;9.476;2023-07-20T02:42:36;15.30;92.30
50013;DHT22;35901;48.694;9.476;2023-07-20T02:45:02;15.20;92.70
50013;DHT22;35901;48.694;9.476;2023-07-20T02:47:31;15.10;92.70
50013;DHT22;35901;48.694;9.476;2023-07-20T02:49:57;15.00;93.00
50013;DHT22;35901;48.694;9.476;2023-07-20T02:52:23;15.00;93.10
50013;DHT22;35901;48.694;9.476;2023-07-20T02:54:50;15.00;93.10
50013;DHT22;35901;48.694;9.476;2023-07-20T02:57:16;14.80;93.40
50013;DHT22;35901;48.694;9.476;2023-07-20T02:59:41;14.70;93.70
50013;DHT22;35901;48.694;9.476;2023-07-20T03:02:07;14.60;94.50
50013;DHT22;35901;48.694;9.476;2023-07-20T03:04:35;14.50;94.70
50013;DHT22;35901;48.694;9.476;2023-07-20T03:07:04;14.40;95.40
50013;DHT22;35901;48.694;9.476;2023-07-20T03:09:29;14.30;95.80
50013;DHT22;35901;48.694;9.476;2023-07-20T03:11:55;14.20;96.60
50013;DHT22;35901;48.694;9.476;2023-07-20T03:14:21;14.00;97.60
50013;DHT22;35901;48.694;9.476;2023-07-20T03:16:48;13.90;99.30
50013;DHT22;35901;48.694;9.476;2023-07-20T03:19:15;13.80;99.90
50013;DHT22;35901;48.694;9.476;2023-07-20T03:21:41;13.70;99.90
50013;DHT22;35901;48.694;9.476;2023-07-20T03:24:08;13.70;99.90
50013;DHT22;35901;48.694;9.476;2023-07-20T03:26:34;13.80;99.90
50013;DHT22;35901;48.694;9.476;2023-07-20T03:29:01;13.70;99.90
50013;DHT22;35901;48.694;9.476;2023-07-20T03:31:26;13.70;99.90
50013;DHT22;35901;48.694;9.476;2023-07-20T03:33:52;13.60;99.90
50013;DHT22;35901;48.694;9.476;2023-07-20T03:36:18;13.60;99.90
50013;DHT22;35901;48.694;9.476;2023-07-20T03:38:43;13.50;99.90
50013;DHT22;35901;48.694;9.476;2023-07-20T03:41:09;13.50;99.90
50013;DHT22;35901;48.694;9.476;2023-07-20T03:43:37;13.40;99.90
50013;DHT22;35901;48.694;9.476;2023-07-20T03:46:03;13.40;99.90
50013;DHT22;35901;48.694;9.476;2023-07-20T03:48:32;13.50;99.90
50013;DHT22;35901;48.694;9.476;2023-07-20T03:50:58;13.50;99.90
50013;DHT22;35901;48.694;9.476;2023-07-20T03:53:26;13.50;99.90
50013;DHT22;35901;48.694;9.476;2023-07-20T03:55:52;13.60;99.90
50013;DHT22;35901;48.694;9.476;2023-07-20T03:58:19;13.30;99.90
50013;DHT22;35901;48.694;9.476;2023-07-20T04:00:46;13.10;99.90
50013;DHT22;35901;48.694;9.476;2023-07-20T04:03:12;13.00;99.90
50013;DHT22;35901;48.694;9.476;2023-07-20T04:05:38;13.00;99.90
50013;DHT22;35901;48.694;9.476;2023-07-20T04:08:04;13.20;99.90
50013;DHT22;35901;48.694;9.476;2023-07-20T04:10:29;13.30;99.90
50013;DHT22;35901;48.694;9.476;2023-07-20T04:12:55;13.40;99.90
50013;DHT22;35901;48.694;9.476;2023-07-20T04:15:21;13.60;99.90
50013;DHT22;35901;48.694;9.476;2023-07-20T04:17:46;13.50;99.90
50013;DHT22;35901;48.694;9.476;2023-07-20T04:20:12;13.40;99.90
50013;DHT22;35901;48.694;9.476;2023-07-20T04:22:38;13.40;99.90
50013;DHT22;35901;48.694;9.476;2023-07-20T04:25:06;13.50;99.90
50013;DHT22;35901;48.694;9.476;2023-07-20T04:27:33;13.60;99.90
50013;DHT22;35901;48.694;9.476;2023-07-20T04:29:58;13.70;99.90
50013;DHT22;35901;48.694;9.476;2023-07-20T04:32:25;13.80;99.90
50013;DHT22;35901;48.694;9.476;2023-07-20T04:34:51;13.90;99.90
50013;DHT22;35901;48.694;9.476;2023-07-20T04:37:17;14.00;99.90
50013;DHT22;35901;48.694;9.476;2023-07-20T04:39:45;14.10;99.90
50013;DHT22;35901;48.694;9.476;2023-07-20T04:42:11;14.20;99.90
50013;DHT22;35901;48.694;9.476;2023-07-20T04:44:37;14.40;99.90
50013;DHT22;35901;48.694;9.476;2023-07-20T04:47:02;15.00;99.90
50013;DHT22;35901;48.694;9.476;2023-07-20T04:49:31;15.70;99.90
50013;DHT22;35901;48.694;9.476;2023-07-20T04:51:58;16.20;99.90
50013;DHT22;35901;48.694;9.476;2023-07-20T04:54:24;16.60;99.90
50013;DHT22;35901;48.694;9.476;2023-07-20T04:56:53;17.00;99.90
50013;DHT22;35901;48.694;9.476;2023-07-20T04:59:20;17.30;99.90
50013;DHT22;35901;48.694;9.476;2023-07-20T05:01:46;17.10;99.90
50013;DHT22;35901;48.694;9.476;2023-07-20T05:04:12;16.70;99.90
50013;DHT22;35901;48.694;9.476;2023-07-20T05:06:37;17.30;99.90
50013;DHT22;35901;48.694;9.476;2023-07-20T05:09:05;18.30;99.90
50013;DHT22;35901;48.694;9.476;2023-07-20T05:11:33;18.90;99.90
50013;DHT22;35901;48.694;9.476;2023-07-20T05:14:00;19.20;99.90
50013;DHT22;35901;48.694;9.476;2023-07-20T05:16:25;18.70;99.90
50013;DHT22;35901;48.694;9.476;2023-07-20T05:18:52;18.20;99.90
50013;DHT22;35901;48.694;9.476;2023-07-20T05:21:18;17.70;99.90
50013;DHT22;35901;48.694;9.476;2023-07-20T05:23:44;17.40;99.90
50013;DHT22;35901;48.694;9.476;2023-07-20T05:26:11;17.20;99.90
50013;DHT22;35901;48.694;9.476;2023-07-20T05:28:37;17.10;99.90
50013;DHT22;35901;48.694;9.476;2023-07-20T05:31:03;17.20;99.90
50013;DHT22;35901;48.694;9.476;2023-07-20T05:33:29;17.30;99.90
50013;DHT22;35901;48.694;9.476;2023-07-20T05:35:54;17.30;99.90
50013;DHT22;35901;48.694;9.476;2023-07-20T05:38:20;17.20;99.90
50013;DHT22;35901;48.694;9.476;2023-07-20T05:40:46;17.30;99.90
50013;DHT22;35901;48.694;9.476;2023-07-20T05:43:12;17.40;99.90
50013;DHT22;35901;48.694;9.476;2023-07-20T05:45:41;17.40;99.90
50013;DHT22;35901;48.694;9.476;2023-07-20T05:48:07;17.60;99.90
50013;DHT22;35901;48.694;9.476;2023-07-20T05:50:35;17.60;99.90
50013;DHT22;35901;48.694;9.476;2023-07-20T05:53:00;17.70;99.90
50013;DHT22;35901;48.694;9.476;2023-07-20T05:55:26;17.70;99.90
50013;DHT22;35901;48.694;9.476;2023-07-20T05:57:51;17.80;99.90
50013;DHT22;35901;48.694;9.476;2023-07-20T06:00:17;17.90;99.90
50013;DHT22;35901;48.694;9.476;2023-07-20T06:02:44;17.90;99.90
50013;DHT22;35901;48.694;9.476;2023-07-20T06:05:10;17.90;99.90
50013;DHT22;35901;48.694;9.476;2023-07-20T06:07:37;17.90;99.90
50013;DHT22;35901;48.694;9.476;2023-07-20T06:10:04;18.00;99.90
50013;DHT22;35901;48.694;9.476;2023-07-20T06:12:31;18.10;99.90
50013;DHT22;35901;48.694;9.476;2023-07-20T06:14:56;18.20;99.90
50013;DHT22;35901;48.694;9.476;2023-07-20T06:17:22;18.30;99.90
50013;DHT22;35901;48.694;9.476;2023-07-20T06:19:48;18.40;99.90
50013;DHT22;35901;48.694;9.476;2023-07-20T06:22:13;18.50;99.90
50013;DHT22;35901;48.694;9.476;2023-07-20T06:24:39;18.60;99.90
50013;DHT22;35901;48.694;9.476;2023-07-20T06:27:05;18.70;99.90
50013;DHT22;35901;48.694;9.476;2023-07-20T06:29:31;18.80;99.90
50013;DHT22;35901;48.694;9.476;2023-07-20T06:31:57;18.90;99.90
50013;DHT22;35901;48.694;9.476;2023-07-20T06:34:22;18.90;99.90
50013;DHT22;35901;48.694;9.476;2023-07-20T06:36:48;19.00;99.90
50013;DHT22;35901;48.694;9.476;2023-07-20T06:39:13;19.10;99.90
50013;DHT22;35901;48.694;9.476;2023-07-20T06:41:39;19.10;99.90
50013;DHT22;35901;48.694;9.476;2023-07-20T06:44:05;19.20;99.90
50013;DHT22;35901;48.694;9.476;2023-07-20T06:46:31;19.20;99.90
50013;DHT22;35901;48.694;9.476;2023-07-20T06:48:56;19.10;99.90
50013;DHT22;35901;48.694;9.476;2023-07-20T06:51:22;19.20;99.90
50013;DHT22;35901;48.694;9.476;2023-07-20T06:53:48;19.20;99.90
50013;DHT22;35901;48.694;9.476;2023-07-20T06:56:13;19.30;99.90
50013;DHT22;35901;48.694;9.476;2023-07-20T06:58:39;19.50;99.90
50013;DHT22;35901;48.694;9.476;2023-07-20T07:01:06;19.80;99.90
50013;DHT22;35901;48.694;9.476;2023-07-20T07:03:32;19.90;99.90
50013;DHT22;35901;48.694;9.476;2023-07-20T07:05:58;20.10;99.10
50013;DHT22;35901;48.694;9.476;2023-07-20T07:08:24;20.20;98.70
50013;DHT22;35901;48.694;9.476;2023-07-20T07:10:50;20.30;97.90
50013;DHT22;35901;48.694;9.476;2023-07-20T07:13:16;20.40;97.90
50013;DHT22;35901;48.694;9.476;2023-07-20T07:15:42;20.70;97.40
50013;DHT22;35901;48.694;9.476;2023-07-20T07:18:08;20.80;97.10
50013;DHT22;35901;48.694;9.476;2023-07-20T07:20:34;21.00;96.60
50013;DHT22;35901;48.694;9.476;2023-07-20T07:22:59;21.20;96.10
50013;DHT22;35901;48.694;9.476;2023-07-20T07:25:26;21.20;95.80
50013;DHT22;35901;48.694;9.476;2023-07-20T07:27:53;21.50;95.20
50013;DHT22;35901;48.694;9.476;2023-07-20T07:30:19;21.70;94.00
50013;DHT22;35901;48.694;9.476;2023-07-20T07:32:45;21.70;93.40
50013;DHT22;35901;48.694;9.476;2023-07-20T07:35:11;22.00;93.30
50013;DHT22;35901;48.694;9.476;2023-07-20T07:37:37;22.30;93.00
50013;DHT22;35901;48.694;9.476;2023-07-20T07:40:03;23.00;92.50
50013;DHT22;35901;48.694;9.476;2023-07-20T07:42:29;23.40;91.40
50013;DHT22;35901;48.694;9.476;2023-07-20T07:44:55;23.40;90.90
50013;DHT22;35901;48.694;9.476;2023-07-20T07:47:20;23.50;90.00
50013;DHT22;35901;48.694;9.476;2023-07-20T07:49:46;23.10;90.30
50013;DHT22;35901;48.694;9.476;2023-07-20T07:52:12;22.70;90.60
50013;DHT22;35901;48.694;9.476;2023-07-20T07:54:39;22.70;91.10
50013;DHT22;35901;48.694;9.476;2023-07-20T07:57:05;22.90;90.80
50013;DHT22;35901;48.694;9.476;2023-07-20T07:59:31;22.60;90.80
50013;DHT22;35901;48.694;9.476;2023-07-20T08:02:02;22.80;91.10
50013;DHT22;35901;48.694;9.476;2023-07-20T08:04:28;23.10;90.90
50013;DHT22;35901;48.694;9.476;2023-07-20T08:06:53;23.50;90.50
50013;DHT22;35901;48.694;9.476;2023-07-20T08:09:19;24.00;90.00
50013;DHT22;35901;48.694;9.476;2023-07-20T08:11:45;23.90;88.40
50013;DHT22;35901;48.694;9.476;2023-07-20T08:14:10;23.70;88.40
50013;DHT22;35901;48.694;9.476;2023-07-20T08:16:36;23.60;87.40
50013;DHT22;35901;48.694;9.476;2023-07-20T08:19:02;23.30;87.10
50013;DHT22;35901;48.694;9.476;2023-07-20T08:21:27;23.20;85.90
50013;DHT22;35901;48.694;9.476;2023-07-20T08:23:53;23.00;85.90
50013;DHT22;35901;48.694;9.476;2023-07-20T08:26:19;23.20;86.60
50013;DHT22;35901;48.694;9.476;2023-07-20T08:28:48;23.80;88.10
50013;DHT22;35901;48.694;9.476;2023-07-20T08:31:14;24.30;85.30
50013;DHT22;35901;48.694;9.476;2023-07-20T08:33:39;24.30;83.70
50013;DHT22;35901;48.694;9.476;2023-07-20T08:36:05;23.70;83.90
50013;DHT22;35901;48.694;9.476;2023-07-20T08:38:31;23.80;84.70
50013;DHT22;35901;48.694;9.476;2023-07-20T08:40:57;23.80;84.10
50013;DHT22;35901;48.694;9.476;2023-07-20T08:43:25;23.80;84.70
50013;DHT22;35901;48.694;9.476;2023-07-20T08:45:56;24.20;83.90
50013;DHT22;35901;48.694;9.476;2023-07-20T08:48:22;24.40;81.80
50013;DHT22;35901;48.694;9.476;2023-07-20T08:50:52;24.40;81.40
50013;DHT22;35901;48.694;9.476;2023-07-20T08:53:21;24.60;81.90
50013;DHT22;35901;48.694;9.476;2023-07-20T08:55:50;24.90;80.00
50013;DHT22;35901;48.694;9.476;2023-07-20T08:58:17;25.10;80.10
50013;DHT22;35901;48.694;9.476;2023-07-20T09:00:43;25.50;79.70
50013;DHT22;35901;48.694;9.476;2023-07-20T09:03:10;26.10;78.10
50013;DHT22;35901;48.694;9.476;2023-07-20T09:05:36;26.20;75.40
50013;DHT22;35901;48.694;9.476;2023-07-20T09:08:02;26.10;76.40
50013;DHT22;35901;48.694;9.476;2023-07-20T09:10:31;26.00;76.80
50013;DHT22;35901;48.694;9.476;2023-07-20T09:12:56;26.10;76.40
50013;DHT22;35901;48.694;9.476;2023-07-20T09:15:22;26.10;77.40
50013;DHT22;35901;48.694;9.476;2023-07-20T09:17:51;26.30;77.20
50013;DHT22;35901;48.694;9.476;2023-07-20T09:20:19;26.40;76.60
50013;DHT22;35901;48.694;9.476;2023-07-20T09:22:46;26.50;75.10
50013;DHT22;35901;48.694;9.476;2023-07-20T09:25:16;26.30;72.50
50013;DHT22;35901;48.694;9.476;2023-07-20T09:27:47;26.20;71.40
50013;DHT22;35901;48.694;9.476;2023-07-20T09:30:15;26.60;71.40
50013;DHT22;35901;48.694;9.476;2023-07-20T09:32:44;26.90;71.10
50013;DHT22;35901;48.694;9.476;2023-07-20T09:35:18;27.00;70.20
50013;DHT22;35901;48.694;9.476;2023-07-20T09:37:58;26.50;68.90
50013;DHT22;35901;48.694;9.476;2023-07-20T09:40:25;25.80;69.60
50013;DHT22;35901;48.694;9.476;2023-07-20T09:42:55;25.10;71.00
50013;DHT22;35901;48.694;9.476;2023-07-20T09:45:35;24.80;72.30
50013;DHT22;35901;48.694;9.476;2023-07-20T09:48:05;24.70;72.30
50013;DHT22;35901;48.694;9.476;2023-07-20T09:53:25;25.20;72.30
50013;DHT22;35901;48.694;9.476;2023-07-20T09:55:52;25.90;70.90
50013;DHT22;35901;48.694;9.476;2023-07-20T09:58:18;26.20;69.50
50013;DHT22;35901;48.694;9.476;2023-07-20T10:00:45;26.40;68.00
50013;DHT22;35901;48.694;9.476;2023-07-20T10:03:25;26.00;68.10
50013;DHT22;35901;48.694;9.476;2023-07-20T10:05:54;25.40;68.10
50013;DHT22;35901;48.694;9.476;2023-07-20T10:08:24;24.80;69.10
50013;DHT22;35901;48.694;9.476;2023-07-20T10:10:50;24.70;69.90
50013;DHT22;35901;48.694;9.476;2023-07-20T10:13:27;25.10;70.40
50013;DHT22;35901;48.694;9.476;2023-07-20T10:16:03;25.80;70.60
50013;DHT22;35901;48.694;9.476;2023-07-20T10:18:41;26.40;68.80
50013;DHT22;35901;48.694;9.476;2023-07-20T10:21:10;26.70;66.00
50013;DHT22;35901;48.694;9.476;2023-07-20T10:23:37;26.00;66.40
50013;DHT22;35901;48.694;9.476;2023-07-20T10:26:04;25.60;67.20
50013;DHT22;35901;48.694;9.476;2023-07-20T10:28:30;25.80;67.60
50013;DHT22;35901;48.694;9.476;2023-07-20T10:30:56;26.20;65.40
50013;DHT22;35901;48.694;9.476;2023-07-20T10:33:22;26.80;62.90
50013;DHT22;35901;48.694;9.476;2023-07-20T10:36:15;27.20;61.40
50013;DHT22;35901;48.694;9.476;2023-07-20T10:38:52;27.20;61.40
50013;DHT22;35901;48.694;9.476;2023-07-20T10:41:29;27.30;62.20
50013;DHT22;35901;48.694;9.476;2023-07-20T10:44:06;27.70;62.70
50013;DHT22;35901;48.694;9.476;2023-07-20T10:49:08;26.60;63.40
50013;DHT22;35901;48.694;9.476;2023-07-20T10:51:45;26.30;63.50
50013;DHT22;35901;48.694;9.476;2023-07-20T10:56:44;25.70;66.00
50013;DHT22;35901;48.694;9.476;2023-07-20T10:59:37;26.20;65.00
50013;DHT22;35901;48.694;9.476;2023-07-20T11:02:09;26.70;64.50
50013;DHT22;35901;48.694;9.476;2023-07-20T11:04:42;27.20;63.40
50013;DHT22;35901;48.694;9.476;2023-07-20T11:07:09;27.50;61.50
50013;DHT22;35901;48.694;9.476;2023-07-20T11:09:37;27.50;61.00
50013;DHT22;35901;48.694;9.476;2023-07-20T11:12:14;27.60;61.40
50013;DHT22;35901;48.694;9.476;2023-07-20T11:14:53;27.80;60.40
50013;DHT22;35901;48.694;9.476;2023-07-20T11:17:19;28.00;59.20
50013;DHT22;35901;48.694;9.476;2023-07-20T11:19:55;28.00;58.00
50013;DHT22;35901;48.694;9.476;2023-07-20T11:22:22;28.00;56.80
50013;DHT22;35901;48.694;9.476;2023-07-20T11:24:48;28.10;57.10
50013;DHT22;35901;48.694;9.476;2023-07-20T11:27:15;27.50;57.20
50013;DHT22;35901;48.694;9.476;2023-07-20T11:29:41;27.30;58.10
50013;DHT22;35901;48.694;9.476;2023-07-20T11:32:07;27.50;58.90
50013;DHT22;35901;48.694;9.476;2023-07-20T11:34:34;27.70;59.30
50013;DHT22;35901;48.694;9.476;2023-07-20T11:37:00;27.90;59.10
50013;DHT22;35901;48.694;9.476;2023-07-20T11:39:25;28.50;59.00
50013;DHT22;35901;48.694;9.476;2023-07-20T11:41:55;28.60;57.80
50013;DHT22;35901;48.694;9.476;2023-07-20T11:44:23;28.30;57.50
50013;DHT22;35901;48.694;9.476;2023-07-20T11:47:10;28.30;58.20
50013;DHT22;35901;48.694;9.476;2023-07-20T11:49:43;28.40;57.70
50013;DHT22;35901;48.694;9.476;2023-07-20T11:52:11;28.40;56.60
50013;DHT22;35901;48.694;9.476;2023-07-20T11:54:38;28.30;56.70
50013;DHT22;35901;48.694;9.476;2023-07-20T11:57:05;28.40;56.00
50013;DHT22;35901;48.694;9.476;2023-07-20T11:59:31;28.50;54.30
50013;DHT22;35901;48.694;9.476;2023-07-20T12:02:02;28.50;55.70
50013;DHT22;35901;48.694;9.476;2023-07-20T12:04:29;28.30;55.40
50013;DHT22;35901;48.694;9.476;2023-07-20T12:06:55;27.60;55.00
50013;DHT22;35901;48.694;9.476;2023-07-20T12:09:21;27.20;56.20
50013;DHT22;35901;48.694;9.476;2023-07-20T12:11:49;27.50;58.10
50013;DHT22;35901;48.694;9.476;2023-07-20T12:14:16;28.00;57.30
50013;DHT22;35901;48.694;9.476;2023-07-20T12:16:42;28.50;56.10
50013;DHT22;35901;48.694;9.476;2023-07-20T12:19:08;28.70;55.90
50013;DHT22;35901;48.694;9.476;2023-07-20T12:21:35;28.60;55.00
50013;DHT22;35901;48.694;9.476;2023-07-20T12:24:05;28.50;55.50
50013;DHT22;35901;48.694;9.476;2023-07-20T12:26:32;28.60;55.20
50013;DHT22;35901;48.694;9.476;2023-07-20T12:28:59;28.90;55.00
50013;DHT22;35901;48.694;9.476;2023-07-20T12:31:27;29.00;53.30
50013;DHT22;35901;48.694;9.476;2023-07-20T12:33:56;28.60;53.50
50013;DHT22;35901;48.694;9.476;2023-07-20T12:36:21;28.30;54.10
50013;DHT22;35901;48.694;9.476;2023-07-20T12:38:47;28.20;53.50
50013;DHT22;35901;48.694;9.476;2023-07-20T12:41:14;28.10;53.10
50013;DHT22;35901;48.694;9.476;2023-07-20T12:43:41;27.70;54.10
50013;DHT22;35901;48.694;9.476;2023-07-20T12:46:08;27.30;55.60
50013;DHT22;35901;48.694;9.476;2023-07-20T12:48:34;26.90;55.40
50013;DHT22;35901;48.694;9.476;2023-07-20T12:51:02;26.70;56.00
50013;DHT22;35901;48.694;9.476;2023-07-20T12:53:29;27.50;56.40
50013;DHT22;35901;48.694;9.476;2023-07-20T12:55:54;27.80;55.90
50013;DHT22;35901;48.694;9.476;2023-07-20T12:58:20;28.00;53.80
50013;DHT22;35901;48.694;9.476;2023-07-20T13:00:46;27.90;54.40
50013;DHT22;35901;48.694;9.476;2023-07-20T13:03:14;28.20;54.80
50013;DHT22;35901;48.694;9.476;2023-07-20T13:05:41;28.20;54.00
50013;DHT22;35901;48.694;9.476;2023-07-20T13:08:07;28.30;54.40
50013;DHT22;35901;48.694;9.476;2023-07-20T13:10:33;28.40;52.50
50013;DHT22;35901;48.694;9.476;2023-07-20T13:12:59;28.30;53.20
50013;DHT22;35901;48.694;9.476;2023-07-20T13:15:30;28.00;54.70
50013;DHT22;35901;48.694;9.476;2023-07-20T13:17:57;28.20;54.40
50013;DHT22;35901;48.694;9.476;2023-07-20T13:20:24;28.40;52.90
50013;DHT22;35901;48.694;9.476;2023-07-20T13:22:53;28.40;53.40
50013;DHT22;35901;48.694;9.476;2023-07-20T13:25:18;28.60;52.60
50013;DHT22;35901;48.694;9.476;2023-07-20T13:27:45;28.70;52.30
50013;DHT22;35901;48.694;9.476;2023-07-20T13:30:11;28.80;50.30
50013;DHT22;35901;48.694;9.476;2023-07-20T13:32:42;28.40;50.70
50013;DHT22;35901;48.694;9.476;2023-07-20T13:35:10;27.90;51.70
50013;DHT22;35901;48.694;9.476;2023-07-20T13:37:36;27.90;51.50
50013;DHT22;35901;48.694;9.476;2023-07-20T13:40:02;27.80;51.70
50013;DHT22;35901;48.694;9.476;2023-07-20T13:42:30;27.40;52.00
50013;DHT22;35901;48.694;9.476;2023-07-20T13:44:56;27.30;51.60
50013;DHT22;35901;48.694;9.476;2023-07-20T13:47:22;27.30;51.80
50013;DHT22;35901;48.694;9.476;2023-07-20T13:49:47;27.40;51.80
50013;DHT22;35901;48.694;9.476;2023-07-20T13:52:13;27.40;53.10
50013;DHT22;35901;48.694;9.476;2023-07-20T13:54:39;27.90;53.30
50013;DHT22;35901;48.694;9.476;2023-07-20T13:57:05;28.30;52.50
50013;DHT22;35901;48.694;9.476;2023-07-20T13:59:31;28.40;51.20
50013;DHT22;35901;48.694;9.476;2023-07-20T14:01:57;28.10;50.80
50013;DHT22;35901;48.694;9.476;2023-07-20T14:04:22;27.90;51.70
50013;DHT22;35901;48.694;9.476;2023-07-20T14:06:48;27.80;51.10
50013;DHT22;35901;48.694;9.476;2023-07-20T14:09:15;27.60;50.90
50013;DHT22;35901;48.694;9.476;2023-07-20T14:11:41;27.70;51.70
50013;DHT22;35901;48.694;9.476;2023-07-20T14:14:07;27.70;50.90
50013;DHT22;35901;48.694;9.476;2023-07-20T14:16:33;27.70;51.70
50013;DHT22;35901;48.694;9.476;2023-07-20T14:18:58;27.90;51.60
50013;DHT22;35901;48.694;9.476;2023-07-20T14:21:24;28.20;51.20
50013;DHT22;35901;48.694;9.476;2023-07-20T14:23:52;28.30;51.70
50013;DHT22;35901;48.694;9.476;2023-07-20T14:26:20;28.30;51.10
50013;DHT22;35901;48.694;9.476;2023-07-20T14:28:46;28.30;50.30
50013;DHT22;35901;48.694;9.476;2023-07-20T14:31:11;28.20;49.70
50013;DHT22;35901;48.694;9.476;2023-07-20T14:33:37;28.00;50.60
50013;DHT22;35901;48.694;9.476;2023-07-20T14:36:03;28.00;50.90
50013;DHT22;35901;48.694;9.476;2023-07-20T14:38:31;28.00;51.40
50013;DHT22;35901;48.694;9.476;2023-07-20T14:40:57;28.20;51.40
50013;DHT22;35901;48.694;9.476;2023-07-20T14:43:23;28.40;50.90
50013;DHT22;35901;48.694;9.476;2023-07-20T14:45:49;28.60;50.40
50013;DHT22;35901;48.694;9.476;2023-07-20T14:48:14;28.20;50.10
50013;DHT22;35901;48.694;9.476;2023-07-20T14:50:40;27.70;50.30
50013;DHT22;35901;48.694;9.476;2023-07-20T14:53:06;27.40;50.60
50013;DHT22;35901;48.694;9.476;2023-07-20T14:55:33;27.40;50.80
50013;DHT22;35901;48.694;9.476;2023-07-20T14:57:59;27.80;51.70
50013;DHT22;35901;48.694;9.476;2023-07-20T15:00:24;28.10;50.60
50013;DHT22;35901;48.694;9.476;2023-07-20T15:02:51;28.30;48.90
50013;DHT22;35901;48.694;9.476;2023-07-20T15:05:23;28.10;49.30
50013;DHT22;35901;48.694;9.476;2023-07-20T15:07:49;28.00;49.70
50013;DHT22;35901;48.694;9.476;2023-07-20T15:10:17;28.00;50.20
50013;DHT22;35901;48.694;9.476;2023-07-20T15:12:43;27.90;50.40
50013;DHT22;35901;48.694;9.476;2023-07-20T15:15:10;28.10;50.00
50013;DHT22;35901;48.694;9.476;2023-07-20T15:17:37;28.40;49.60
50013;DHT22;35901;48.694;9.476;2023-07-20T15:20:05;28.60;48.80
50013;DHT22;35901;48.694;9.476;2023-07-20T15:22:35;28.70;48.70
50013;DHT22;35901;48.694;9.476;2023-07-20T15:25:02;28.40;49.30
50013;DHT22;35901;48.694;9.476;2023-07-20T15:27:30;28.10;49.10
50013;DHT22;35901;48.694;9.476;2023-07-20T15:29:56;27.80;49.60
50013;DHT22;35901;48.694;9.476;2023-07-20T15:32:22;27.80;50.50
50013;DHT22;35901;48.694;9.476;2023-07-20T15:34:48;27.60;50.20
50013;DHT22;35901;48.694;9.476;2023-07-20T15:37:13;27.60;49.50
50013;DHT22;35901;48.694;9.476;2023-07-20T15:39:40;27.40;49.60